Weather at La Jolla Center II Helipad

Public forecast

Using degrees Fahrenheit for public forecast. Weather courtesy of forecast.io.

Closest aviation weather report (METAR) to La Jolla Center II Helipad

Closest report is Miramar Marine Corps Air Station - Mitscher Field, 3.2 nm (6.0 km) E.

2024/06/12 14:15 (retrieved 20 minutes ago)

KNKX 121415Z 23004KT 2SM BR OVC009 14/14 A2997 RMK AO2 CIG 006V010 T01440144

Closest aviation forecast (TAF) to La Jolla Center II Helipad

Closest forecast is San Diego International Airport, 8.6 nm (15.8 km) S.

2024/06/12 12:30 (retrieved 2 hours ago)

TAF KSAN 121127Z 1212/1318 VRB04KT P6SM OVC010 TEMPO 1212/1216 5SM BR OVC008 FM121800 25006KT P6SM OVC010 FM122000 27009KT P6SM SCT015 FM130300 28005KT P6SM OVC014 FM131200 VRB04KT P6SM OVC009